createdAt,value
2019-03-01T00:01:54.023Z,52.41
2019-03-01T00:05:21.184Z,53.66
2019-03-01T00:08:16.072Z,54.70
2019-03-01T00:11:43.855Z,55.05
2019-03-01T00:15:03.065Z,55.60
2019-03-01T00:18:38.785Z,57.00
2019-03-01T00:22:16.963Z,59.62
2019-03-01T00:25:45.960Z,60.18
2019-03-01T00:29:16.609Z,62.12
2019-03-01T00:32:30.998Z,62.13
2019-03-01T00:36:12.650Z,67.71
2019-03-01T00:39:25.951Z,54.15
2019-03-01T00:42:54.883Z,48.78
2019-03-01T00:45:27.701Z,49.63
2019-03-01T00:48:00.649Z,50.84
2019-03-01T00:50:33.839Z,52.01
2019-03-01T00:53:07.338Z,53.15
2019-03-01T00:55:45.909Z,55.04
2019-03-01T00:58:18.909Z,55.73
2019-03-01T01:00:53.103Z,56.52
2019-03-01T01:03:26.059Z,57.08
2019-03-01T01:05:58.889Z,58.05
2019-03-01T01:08:31.857Z,59.07
2019-03-01T01:13:55.551Z,61.57
2019-03-01T01:16:28.421Z,62.06
2019-03-01T01:19:01.297Z,68.94
2019-03-01T01:21:34.506Z,60.28
2019-03-01T01:24:09.110Z,52.36
2019-03-01T01:26:42.486Z,52.23
2019-03-01T01:29:15.406Z,53.18
2019-03-01T01:31:48.410Z,54.17
2019-03-01T01:34:21.391Z,55.39
2019-03-01T01:36:54.426Z,57.03
2019-03-01T01:39:28.880Z,57.81
2019-03-01T01:42:01.983Z,58.49
2019-03-01T01:44:34.872Z,60.01
2019-03-01T01:47:07.690Z,60.54
2019-03-01T01:49:40.641Z,61.57
2019-03-01T01:52:14.734Z,62.13
2019-03-01T01:54:47.830Z,67.77
2019-03-01T01:57:20.834Z,60.24
2019-03-01T01:59:53.761Z,52.35
2019-03-01T02:02:26.749Z,51.71
2019-03-01T02:04:59.705Z,52.29
2019-03-01T02:07:34.259Z,53.06
2019-03-01T02:10:08.737Z,53.98
2019-03-01T02:12:41.753Z,55.06
2019-03-01T02:15:15.114Z,55.93
2019-03-01T02:17:49.142Z,56.72
2019-03-01T02:20:22.067Z,57.56
2019-03-01T02:22:54.880Z,58.33
2019-03-01T02:25:27.881Z,59.23
2019-03-01T02:28:00.743Z,59.93
2019-03-01T02:30:34.608Z,60.99
2019-03-01T02:33:07.669Z,61.59
2019-03-01T02:35:40.679Z,62.56
2019-03-01T02:38:13.631Z,69.97
2019-03-01T02:40:46.534Z,61.80
2019-03-01T02:43:19.387Z,53.79
2019-03-01T02:45:52.506Z,47.77
2019-03-01T02:48:25.600Z,48.13
2019-03-01T02:50:58.487Z,49.09
2019-03-01T02:53:31.295Z,50.21
2019-03-01T02:56:04.270Z,51.26
2019-03-01T02:58:37.270Z,52.46
2019-03-01T03:01:10.184Z,53.32
2019-03-01T03:03:43.078Z,54.45
2019-03-01T03:06:37.719Z,55.65
2019-03-01T03:09:11.770Z,56.66
2019-03-01T03:11:44.874Z,58.31
2019-03-01T03:14:17.894Z,58.95
2019-03-01T03:16:50.877Z,59.52
2019-03-01T03:19:23.749Z,60.83
2019-03-01T03:21:56.608Z,61.55
2019-03-01T03:24:29.603Z,62.13
2019-03-01T03:27:02.565Z,69.21
2019-03-01T03:29:36.714Z,61.05
2019-03-01T03:32:11.098Z,52.81
2019-03-01T03:34:44.138Z,47.01
2019-03-01T03:37:16.935Z,47.30
2019-03-01T03:39:49.809Z,48.55
2019-03-01T03:42:22.860Z,49.70
2019-03-01T03:44:55.856Z,51.03
2019-03-01T03:47:28.943Z,52.21
2019-03-01T03:50:02.076Z,53.56
2019-03-01T03:52:39.367Z,54.74
2019-03-01T03:55:14.503Z,55.98
2019-03-01T03:57:48.159Z,57.63
2019-03-01T04:00:21.501Z,58.61
2019-03-01T04:02:54.610Z,59.42
2019-03-01T04:05:27.580Z,60.78
2019-03-01T04:08:00.520Z,61.75
2019-03-01T04:10:33.396Z,62.19
2019-03-01T04:13:06.433Z,68.51
2019-03-01T04:15:39.509Z,60.03
2019-03-01T04:18:12.424Z,52.17
2019-03-01T04:20:45.460Z,52.37
2019-03-01T04:23:18.533Z,53.48
2019-03-01T04:25:51.366Z,54.71
2019-03-01T04:28:24.292Z,55.57
2019-03-01T04:30:57.617Z,57.00
2019-03-01T04:33:30.780Z,57.75
2019-03-01T04:36:03.822Z,58.73
2019-03-01T04:38:37.012Z,59.87
2019-03-01T04:41:09.948Z,60.91
2019-03-01T04:43:43.955Z,62.05
2019-03-01T04:46:16.791Z,68.07
2019-03-01T04:48:49.748Z,59.53
2019-03-01T04:51:22.639Z,51.99
2019-03-01T04:53:55.511Z,51.83
2019-03-01T04:56:28.891Z,52.71
2019-03-01T04:59:01.793Z,53.79
2019-03-01T05:01:36.983Z,54.82
2019-03-01T05:04:12.190Z,55.97
2019-03-01T05:06:45.294Z,56.93
2019-03-01T05:09:18.615Z,57.70
2019-03-01T05:11:51.667Z,58.68
2019-03-01T05:14:24.587Z,59.72
2019-03-01T05:16:57.686Z,60.46
2019-03-01T05:19:31.564Z,61.32
2019-03-01T05:22:04.639Z,61.92
2019-03-01T05:24:37.764Z,68.22
2019-03-01T05:27:12.707Z,60.12
2019-03-01T05:29:50.418Z,52.57
2019-03-01T05:32:28.667Z,52.33
2019-03-01T05:35:13.196Z,52.73
2019-03-01T05:37:53.696Z,53.55
2019-03-01T05:40:29.123Z,54.53
2019-03-01T05:43:02.097Z,55.69
2019-03-01T05:45:49.756Z,56.69
2019-03-01T05:48:25.014Z,57.34
2019-03-01T05:50:58.433Z,58.45
2019-03-01T05:53:38.930Z,59.59
2019-03-01T05:56:11.851Z,60.18
2019-03-01T05:58:50.496Z,60.97
2019-03-01T06:02:07.423Z,62.05
2019-03-01T06:04:51.665Z,66.06
2019-03-01T06:08:21.120Z,56.91
2019-03-01T06:11:33.170Z,49.55
2019-03-01T06:15:12.298Z,50.31
2019-03-01T06:18:49.542Z,51.56
2019-03-01T06:21:50.797Z,52.54
2019-03-01T06:25:35.984Z,53.92
2019-03-01T06:29:02.628Z,56.33
2019-03-01T06:33:00.758Z,57.37
2019-03-01T06:36:19.486Z,58.23
2019-03-01T06:40:15.857Z,59.05
2019-03-01T06:43:39.198Z,60.50
2019-03-01T06:47:17.911Z,61.50
2019-03-01T06:50:04.601Z,62.15
2019-03-01T06:52:37.311Z,67.61
2019-03-01T06:55:31.556Z,56.76
2019-03-01T06:58:11.516Z,50.64
2019-03-01T07:00:50.473Z,51.40
2019-03-01T07:03:25.845Z,52.03
2019-03-01T07:06:03.737Z,52.76
2019-03-01T07:09:07.064Z,53.55
2019-03-01T07:12:10.825Z,54.40
2019-03-01T07:15:08.741Z,55.27
2019-03-01T07:18:16.388Z,56.17
2019-03-01T07:21:01.759Z,57.25
2019-03-01T07:25:06.458Z,58.39
2019-03-01T07:27:54.752Z,59.27
2019-03-01T07:35:03.486Z,61.18
2019-03-01T07:37:42.294Z,61.57
2019-03-01T07:40:18.990Z,62.34
2019-03-01T07:42:54.361Z,66.64
2019-03-01T07:45:32.002Z,56.93
2019-03-01T07:48:05.038Z,50.06
2019-03-01T07:50:38.286Z,50.61
2019-03-01T07:53:11.395Z,51.41
2019-03-01T07:55:46.536Z,52.28
2019-03-01T07:58:21.559Z,53.40
2019-03-01T08:00:54.792Z,54.28
2019-03-01T08:03:28.015Z,55.72
2019-03-01T08:06:05.591Z,55.93
2019-03-01T08:08:47.457Z,57.12
2019-03-01T08:11:20.564Z,57.52
2019-03-01T08:14:04.871Z,59.00
2019-03-01T08:16:39.400Z,59.16
2019-03-01T08:19:17.065Z,60.45
2019-03-01T08:21:55.817Z,61.47
2019-03-01T08:24:29.128Z,61.73
2019-03-01T08:27:06.492Z,63.06
2019-03-01T08:29:40.601Z,66.99
2019-03-01T08:32:30.635Z,58.47
2019-03-01T08:35:20.428Z,50.87
2019-03-01T08:38:01.400Z,50.91
2019-03-01T08:40:36.046Z,51.82
2019-03-01T08:43:29.685Z,52.50
2019-03-01T08:46:09.577Z,53.43
2019-03-01T08:48:41.085Z,54.87
2019-03-01T08:51:22.759Z,55.75
2019-03-01T08:54:16.808Z,57.14
2019-03-01T08:56:52.872Z,57.53
2019-03-01T08:59:27.589Z,58.12
2019-03-01T09:02:11.842Z,58.68
2019-03-01T09:04:51.119Z,60.14
2019-03-01T09:07:30.228Z,60.66
2019-03-01T09:10:08.684Z,61.59
2019-03-01T09:12:41.917Z,61.92
2019-03-01T09:15:36.728Z,62.52
2019-03-01T09:18:11.496Z,65.72
2019-03-01T09:20:44.317Z,55.35
2019-03-01T09:23:27.274Z,49.34
2019-03-01T09:26:11.140Z,49.96
2019-03-01T09:28:46.951Z,50.91
2019-03-01T09:31:22.603Z,51.83
2019-03-01T09:34:06.144Z,52.94
2019-03-01T09:36:51.475Z,53.94
2019-03-01T09:39:33.901Z,55.22
2019-03-01T09:42:21.043Z,55.50
2019-03-01T09:45:06.890Z,55.70
2019-03-01T09:50:31.656Z,56.26
2019-03-01T09:53:04.792Z,56.56
2019-03-01T09:55:39.287Z,57.53
2019-03-01T09:58:17.269Z,58.35
2019-03-01T10:01:13.794Z,59.14
2019-03-01T10:03:56.169Z,59.34
2019-03-01T10:06:37.791Z,60.30
2019-03-01T10:09:25.713Z,60.19
2019-03-01T10:12:20.217Z,60.27
2019-03-01T10:15:21.881Z,60.39
2019-03-01T10:18:06.941Z,59.99
2019-03-01T10:21:06.938Z,58.01
2019-03-01T10:24:50.999Z,56.46
2019-03-01T10:27:59.686Z,56.82
2019-03-01T10:30:59.722Z,54.40
2019-03-01T10:33:55.168Z,52.83
2019-03-01T10:36:34.664Z,51.37
2019-03-01T10:39:59.285Z,51.15
2019-03-01T10:42:48.071Z,49.65
2019-03-01T10:45:40.350Z,50.61
2019-03-01T10:48:17.731Z,50.41
2019-03-01T10:51:07.830Z,50.67
2019-03-01T10:53:47.783Z,50.93
2019-03-01T10:56:23.956Z,51.87
2019-03-01T10:59:05.772Z,51.69
2019-03-01T11:01:55.175Z,51.70
2019-03-01T11:04:48.635Z,51.92
2019-03-01T11:07:31.745Z,51.48
2019-03-01T11:13:38.897Z,51.51
2019-03-01T11:16:19.904Z,51.43
2019-03-01T11:19:00.025Z,51.81
2019-03-01T11:21:36.673Z,51.28
2019-03-01T11:24:29.662Z,50.98
2019-03-01T11:27:27.354Z,50.95
2019-03-01T11:30:11.906Z,50.99
2019-03-01T11:32:47.235Z,51.02
2019-03-01T11:35:20.639Z,50.84
2019-03-01T11:38:00.127Z,51.28
2019-03-01T11:40:38.838Z,51.64
2019-03-01T11:43:23.627Z,51.97
2019-03-01T11:46:00.533Z,52.24
2019-03-01T11:48:44.717Z,51.99
2019-03-01T11:51:24.853Z,52.46
2019-03-01T11:54:07.405Z,51.82
2019-03-01T11:56:53.608Z,51.44
2019-03-01T11:59:29.477Z,51.59
2019-03-01T12:02:30.996Z,50.21
2019-03-01T12:05:30.526Z,50.33
2019-03-01T12:08:17.577Z,50.61
2019-03-01T12:11:12.022Z,50.36
2019-03-01T12:13:51.628Z,50.65
2019-03-01T12:16:26.507Z,51.81
2019-03-01T12:19:04.627Z,52.36
2019-03-01T12:21:41.659Z,53.04
2019-03-01T12:24:14.872Z,52.87
2019-03-01T12:26:49.678Z,53.22
2019-03-01T12:29:30.845Z,54.04
2019-03-01T12:32:07.742Z,53.28
2019-03-01T12:34:42.510Z,53.36
2019-03-01T12:37:17.630Z,53.11
2019-03-01T12:40:07.985Z,53.29
2019-03-01T12:42:56.508Z,53.44
2019-03-01T12:45:44.336Z,53.89
2019-03-01T12:48:18.753Z,53.95
2019-03-01T12:50:55.939Z,54.03
2019-03-01T12:53:34.980Z,54.02
2019-03-01T12:56:21.386Z,54.32
2019-03-01T12:59:04.999Z,54.57
2019-03-01T13:01:38.828Z,53.98
2019-03-01T13:04:32.103Z,54.43
2019-03-01T13:07:20.188Z,54.56
2019-03-01T13:09:58.876Z,55.14
2019-03-01T13:12:36.224Z,55.21
2019-03-01T13:15:21.480Z,55.50
2019-03-01T13:18:32.225Z,55.29
2019-03-01T13:21:14.654Z,55.44
2019-03-01T13:23:51.253Z,55.17
2019-03-01T13:27:17.529Z,55.52
2019-03-01T13:29:58.762Z,55.50
2019-03-01T13:32:36.077Z,55.88
2019-03-01T13:35:16.366Z,56.25
2019-03-01T13:37:57.755Z,56.59
2019-03-01T13:40:38.399Z,57.43
2019-03-01T13:43:13.097Z,57.32
2019-03-01T13:45:52.719Z,56.35
2019-03-01T13:48:27.284Z,56.44
2019-03-01T13:51:01.512Z,56.64
2019-03-01T13:53:35.004Z,56.18
2019-03-01T13:56:08.187Z,56.35
2019-03-01T13:58:45.469Z,55.65
2019-03-01T14:01:27.042Z,55.15
2019-03-01T14:04:03.250Z,55.07
2019-03-01T14:06:46.549Z,55.02
2019-03-01T14:09:27.091Z,54.61
2019-03-01T14:12:04.219Z,53.97
2019-03-01T14:14:45.254Z,53.24
2019-03-01T14:18:00.670Z,53.26
2019-03-01T14:20:36.085Z,53.53
2019-03-01T14:23:43.069Z,54.17
2019-03-01T14:26:26.349Z,53.81
2019-03-01T14:29:16.947Z,53.57
2019-03-01T14:31:56.639Z,54.13
2019-03-01T14:34:29.883Z,54.30
2019-03-01T14:37:03.505Z,54.85
2019-03-01T14:39:38.144Z,54.87
2019-03-01T14:42:18.847Z,55.35
2019-03-01T14:44:51.834Z,55.55
2019-03-01T14:47:29.126Z,55.63
2019-03-01T14:50:00.698Z,55.89
2019-03-01T14:52:33.538Z,55.99
2019-03-01T14:55:07.588Z,55.59
2019-03-01T14:57:47.082Z,56.05
2019-03-01T15:01:00.155Z,56.25
2019-03-01T15:03:40.633Z,56.52
2019-03-01T15:06:15.468Z,56.91
2019-03-01T15:08:48.250Z,56.88
2019-03-01T15:11:23.668Z,57.48
2019-03-01T15:13:57.683Z,56.71
2019-03-01T15:16:30.636Z,56.82
2019-03-01T15:19:04.789Z,56.81
2019-03-01T15:21:38.429Z,56.70
2019-03-01T15:24:12.526Z,57.10
2019-03-01T15:26:46.274Z,57.39
2019-03-01T15:29:19.200Z,57.83
2019-03-01T15:31:55.065Z,57.99
2019-03-01T15:34:26.922Z,58.43
2019-03-01T15:36:59.863Z,58.61
2019-03-01T15:39:33.022Z,58.93
2019-03-01T15:42:05.969Z,58.81
2019-03-01T15:44:38.997Z,58.95
2019-03-01T15:47:12.144Z,61.19
2019-03-01T15:49:48.027Z,63.14
2019-03-01T15:52:21.161Z,64.41
2019-03-01T15:54:54.305Z,51.23
2019-03-01T15:57:27.546Z,50.36
2019-03-01T16:00:03.530Z,51.24
2019-03-01T16:02:40.286Z,52.09
2019-03-01T16:05:21.688Z,52.75
2019-03-01T16:07:57.208Z,53.56
2019-03-01T16:10:32.917Z,54.44
2019-03-01T16:13:08.413Z,55.85
2019-03-01T16:15:41.271Z,56.06
2019-03-01T16:18:17.004Z,57.05
2019-03-01T16:20:57.354Z,57.69
2019-03-01T16:23:32.593Z,58.19
2019-03-01T16:26:05.993Z,58.86
2019-03-01T16:28:40.410Z,60.24
2019-03-01T16:31:18.013Z,60.75
2019-03-01T16:33:53.558Z,61.20
2019-03-01T16:36:30.733Z,62.39
2019-03-01T16:39:08.567Z,66.57
2019-03-01T16:41:55.369Z,56.37
2019-03-01T16:44:41.690Z,49.09
2019-03-01T16:47:23.310Z,50.06
2019-03-01T16:49:58.946Z,50.65
2019-03-01T16:52:35.538Z,51.66
2019-03-01T16:55:24.452Z,52.62
2019-03-01T16:58:20.159Z,53.54
2019-03-01T17:01:19.189Z,54.31
2019-03-01T17:04:04.192Z,55.35
2019-03-01T17:06:45.496Z,56.48
2019-03-01T17:09:19.013Z,56.82
2019-03-01T17:11:52.255Z,57.49
2019-03-01T17:14:25.313Z,57.95
2019-03-01T17:17:16.857Z,58.90
2019-03-01T17:19:50.189Z,59.55
2019-03-01T17:22:28.057Z,60.15
2019-03-01T17:25:01.298Z,62.31
2019-03-01T17:27:36.730Z,67.43
2019-03-01T17:30:18.151Z,59.81
2019-03-01T17:33:12.808Z,50.55
2019-03-01T17:35:49.271Z,49.47
2019-03-01T17:38:22.925Z,50.04
2019-03-01T17:40:56.507Z,50.77
2019-03-01T17:43:34.235Z,51.44
2019-03-01T17:46:09.707Z,52.16
2019-03-01T17:48:45.641Z,52.93
2019-03-01T17:51:21.074Z,53.57
2019-03-01T17:53:56.001Z,54.67
2019-03-01T17:56:31.123Z,55.12
2019-03-01T17:59:08.251Z,55.62
2019-03-01T18:01:41.083Z,56.37
2019-03-01T18:04:14.338Z,57.04
2019-03-01T18:06:48.713Z,57.69
2019-03-01T18:09:22.122Z,61.30
2019-03-01T18:11:56.758Z,59.22
2019-03-01T18:14:33.802Z,58.56
2019-03-01T18:17:06.468Z,60.55
2019-03-01T18:19:40.392Z,58.90
2019-03-01T18:22:14.849Z,61.70
2019-03-01T18:24:52.327Z,59.37
2019-03-01T18:27:29.813Z,58.97
2019-03-01T18:30:19.978Z,60.95
2019-03-01T18:33:10.366Z,59.41
2019-03-01T18:35:55.942Z,61.55
2019-03-01T18:38:34.654Z,59.60
2019-03-01T18:41:29.235Z,61.73
2019-03-01T18:44:06.504Z,59.25
2019-03-01T18:46:40.452Z,58.51
2019-03-01T18:49:16.712Z,60.00
2019-03-01T18:51:57.616Z,58.31
2019-03-01T18:54:25.991Z,60.56
2019-03-01T18:57:00.746Z,58.19
2019-03-01T18:59:37.980Z,58.84
2019-03-01T19:02:10.311Z,58.77
2019-03-01T19:04:44.169Z,59.24
2019-03-01T19:07:24.369Z,59.05
2019-03-01T19:10:10.696Z,58.76
2019-03-01T19:12:48.643Z,59.56
2019-03-01T19:15:22.643Z,58.83
2019-03-01T19:18:02.395Z,60.09
2019-03-01T19:20:41.553Z,58.93
2019-03-01T19:23:14.869Z,63.93
2019-03-01T19:25:48.245Z,60.32
2019-03-01T19:28:23.565Z,50.97
2019-03-01T19:31:00.928Z,49.88
2019-03-01T19:33:37.861Z,50.61
2019-03-01T19:36:13.646Z,51.23
2019-03-01T19:38:52.301Z,52.68
2019-03-01T19:41:25.487Z,53.68
2019-03-01T19:43:58.652Z,54.52
2019-03-01T19:46:37.096Z,55.31
2019-03-01T19:49:12.999Z,56.12
2019-03-01T19:51:48.891Z,58.25
2019-03-01T19:54:22.351Z,56.87
2019-03-01T19:57:01.565Z,59.25
2019-03-01T19:59:42.672Z,57.09
2019-03-01T20:02:18.669Z,59.47
2019-03-01T20:04:52.636Z,56.92
2019-03-01T20:07:27.450Z,59.47
2019-03-01T20:10:01.010Z,57.13
2019-03-01T20:12:40.491Z,56.91
2019-03-01T20:15:17.645Z,57.79
2019-03-01T20:17:56.829Z,56.63
2019-03-01T20:20:33.365Z,58.34
2019-03-01T20:23:10.744Z,56.72
2019-03-01T20:25:47.519Z,58.85
2019-03-01T20:28:27.198Z,56.96
2019-03-01T20:31:04.831Z,59.72
2019-03-01T20:33:39.458Z,57.27
2019-03-01T20:36:17.630Z,59.20
2019-03-01T20:38:57.114Z,56.98
2019-03-01T20:41:31.544Z,57.15
2019-03-01T20:44:10.890Z,57.09
2019-03-01T20:46:45.006Z,57.19
2019-03-01T20:49:22.172Z,57.06
2019-03-01T20:51:58.792Z,57.67
2019-03-01T20:54:32.870Z,57.04
2019-03-01T20:57:09.196Z,59.02
2019-03-01T20:59:50.569Z,56.16
2019-03-01T21:02:29.168Z,58.07
2019-03-01T21:05:05.217Z,55.95
2019-03-01T21:07:41.325Z,57.10
2019-03-01T21:10:22.624Z,56.10
2019-03-01T21:12:56.336Z,57.52
2019-03-01T21:15:34.667Z,56.37
2019-03-01T21:18:12.013Z,56.60
2019-03-01T21:20:50.557Z,57.15
2019-03-01T21:23:28.901Z,58.57
2019-03-01T21:26:04.874Z,57.36
2019-03-01T21:28:38.471Z,59.61
2019-03-01T21:31:16.502Z,57.01
2019-03-01T21:33:50.949Z,58.13
2019-03-01T21:36:37.350Z,57.04
2019-03-01T21:39:04.838Z,57.73
2019-03-01T21:41:41.539Z,56.93
2019-03-01T21:44:19.135Z,57.65
2019-03-01T21:46:55.647Z,57.38
2019-03-01T21:49:33.240Z,58.83
2019-03-01T21:52:11.096Z,57.67
2019-03-01T21:54:52.032Z,60.02
2019-03-01T21:57:27.515Z,57.69
2019-03-01T22:00:10.566Z,60.02
2019-03-01T22:02:48.908Z,58.23
2019-03-01T22:05:21.302Z,58.23
2019-03-01T22:08:09.598Z,59.04
2019-03-01T22:10:41.819Z,59.75
2019-03-01T22:13:15.687Z,59.32
2019-03-01T22:16:01.023Z,60.94
2019-03-01T22:18:33.305Z,59.03
2019-03-01T22:21:12.048Z,60.79
2019-03-01T22:23:51.442Z,59.08
2019-03-01T22:26:25.989Z,58.67
2019-03-01T22:29:01.900Z,59.93
2019-03-01T22:31:36.858Z,59.30
2019-03-01T22:34:11.071Z,60.81
2019-03-01T22:36:49.467Z,59.56
2019-03-01T22:39:24.315Z,63.13
2019-03-01T22:41:59.274Z,62.16
2019-03-01T22:44:36.537Z,55.08
2019-03-01T22:47:11.016Z,48.04
2019-03-01T22:49:45.760Z,46.98
2019-03-01T22:52:23.117Z,48.43
2019-03-01T22:55:01.904Z,49.83
2019-03-01T22:57:36.082Z,50.81
2019-03-01T23:00:57.966Z,51.33
2019-03-01T23:03:36.362Z,52.56
2019-03-01T23:06:14.688Z,53.75
2019-03-01T23:08:54.383Z,54.80
2019-03-01T23:11:32.411Z,55.31
2019-03-01T23:14:06.716Z,56.40
2019-03-01T23:16:40.144Z,57.70
2019-03-01T23:19:16.104Z,56.56
2019-03-01T23:21:47.975Z,58.86
2019-03-01T23:24:20.829Z,56.26
2019-03-01T23:26:56.773Z,56.22
2019-03-01T23:29:36.243Z,56.78
2019-03-01T23:32:15.436Z,56.39
2019-03-01T23:34:49.549Z,57.11
2019-03-01T23:37:22.583Z,55.90
2019-03-01T23:39:57.124Z,57.20
2019-03-01T23:42:30.220Z,55.83
2019-03-01T23:45:06.914Z,58.26
2019-03-01T23:47:39.848Z,55.94
2019-03-01T23:50:12.619Z,55.43
2019-03-01T23:52:45.425Z,56.46
2019-03-01T23:55:19.929Z,55.43
2019-03-01T23:57:52.882Z,57.13
